Time;durP1;ratioP1;P1;durP2;ratioP2;P2;SDS_P1;SDS_P2;PMS_P1;PMS_P2;Temp;Humidity;BMP_temperature;BMP_pressure;BME280_temperature;BME280_humidity;BME280_pressure;Samples;Min_cycle;Max_cycle;Signal;HPM_P1;HPM_P2
2022/05/23 00:03:42;;;;;;;8.03;7.37;;;;;;;17.89;72.56;94441.47;5054333;28;20982;-85
2022/05/23 00:06:11;;;;;;;9.10;7.90;;;;;;;17.91;72.93;94434.16;5055416;28;20438;-86
2022/05/23 00:08:38;;;;;;;10.27;7.07;;;;;;;17.91;72.42;94431.50;5056106;28;20450;-86
2022/05/23 00:11:05;;;;;;;8.90;7.60;;;;;;;17.90;72.76;94438.66;5055319;28;20450;-85
2022/05/23 00:13:32;;;;;;;7.60;7.00;;;;;;;17.89;72.77;94444.97;5055621;28;20444;-85
2022/05/23 00:15:59;;;;;;;8.90;7.70;;;;;;;17.90;72.27;94437.81;5055436;28;20457;-85
2022/05/23 00:18:26;;;;;;;7.50;6.80;;;;;;;17.90;72.76;94432.50;5055432;28;20960;-86
2022/05/23 00:20:53;;;;;;;8.40;7.57;;;;;;;17.88;72.99;94434.53;5055286;28;20473;-87
2022/05/23 00:23:22;;;;;;;8.67;7.90;;;;;;;17.84;72.88;94431.44;5055200;28;20456;-87
2022/05/23 00:25:49;;;;;;;8.47;7.67;;;;;;;17.76;72.43;94428.88;5054520;28;20529;-86
2022/05/23 00:28:16;;;;;;;9.80;7.67;;;;;;;17.73;73.12;94421.31;5055868;28;20484;-87
2022/05/23 00:30:43;;;;;;;7.90;7.17;;;;;;;17.80;73.85;94427.50;5056505;28;20522;-86
2022/05/23 00:35:56;;;;;;;10.20;7.73;;;;;;;17.85;73.49;94422.47;5055670;28;20425;-87
2022/05/23 00:38:24;;;;;;;8.03;7.30;;;;;;;17.84;73.04;94418.16;5055358;28;20457;-84
2022/05/23 00:43:13;;;;;;;8.70;7.90;;;;;;;17.84;71.91;94420.81;5020565;28;20480;-88
2022/05/23 00:43:43;;;;;;;9.43;8.53;;;;;;;17.81;72.87;94425.66;5055734;28;20437;-87
2022/05/23 00:46:12;;;;;;;8.40;7.70;;;;;;;17.74;73.26;94430.09;5055459;28;20499;-86
2022/05/23 00:48:39;;;;;;;9.50;7.47;;;;;;;17.68;73.52;94436.97;5055195;28;20442;-86
2022/05/23 00:51:12;;;;;;;7.80;7.00;;;;;;;17.67;72.92;94432.66;5055557;28;20441;-87
2022/05/23 00:57:18;;;;;;;8.70;7.90;;;;;;;17.64;73.90;94438.31;5055199;28;20405;-87
2022/05/23 00:59:45;;;;;;;8.30;7.63;;;;;;;17.61;75.76;94441.31;5055445;28;20477;-87
2022/05/23 01:02:14;;;;;;;8.43;7.73;;;;;;;17.59;73.17;94430.03;5054433;28;20437;-87
2022/05/23 01:04:42;;;;;;;9.13;8.43;;;;;;;17.42;73.47;94436.56;5055149;28;20441;-87
2022/05/23 01:07:12;;;;;;;8.27;7.57;;;;;;;17.42;72.94;94429.44;5054912;28;20476;-87
2022/05/23 01:09:39;;;;;;;8.30;7.60;;;;;;;17.29;74.95;94429.22;5054684;28;20533;-87
2022/05/23 01:12:07;;;;;;;8.77;8.00;;;;;;;17.32;75.38;94429.69;5054786;28;20449;-86
2022/05/23 01:14:48;;;;;;;9.40;8.40;;;;;;;17.25;73.25;94436.72;5054121;28;20468;-87
2022/05/23 01:17:16;;;;;;;9.53;8.20;;;;;;;17.30;73.95;94431.69;5035750;28;20519;-86
2022/05/23 01:19:43;;;;;;;8.70;8.00;;;;;;;17.37;75.02;94439.78;5054159;28;20500;-87
2022/05/23 01:32:24;;;;;;;11.00;7.20;;;;;;;17.30;74.09;94418.44;5035335;28;20463;-86
2022/05/23 01:34:53;;;;;;;9.43;7.90;;;;;;;17.31;75.08;94417.44;5034438;28;20514;-88
2022/05/23 01:37:21;;;;;;;8.13;7.37;;;;;;;17.28;73.17;94417.78;5034053;28;21004;-87
2022/05/23 01:39:48;;;;;;;10.43;7.50;;;;;;;17.24;74.46;94421.81;5034235;28;20481;-86
2022/05/23 01:42:15;;;;;;;7.50;6.90;;;;;;;17.25;75.80;94417.34;5034162;28;20442;-87
2022/05/23 01:44:42;;;;;;;12.30;6.80;;;;;;;17.22;74.33;94415.88;5034742;28;20951;-86
2022/05/23 01:47:11;;;;;;;6.90;6.30;;;;;;;17.23;73.63;94416.69;5034400;28;20949;-86
2022/05/23 01:49:41;;;;;;;8.30;6.83;;;;;;;17.21;74.75;94406.28;5033540;28;20445;-87
2022/05/23 01:52:08;;;;;;;7.73;7.13;;;;;;;17.19;74.10;94408.28;5033965;28;20443;-87
2022/05/23 01:54:35;;;;;;;8.80;8.00;;;;;;;17.15;72.29;94414.97;5033486;28;20458;-86
2022/05/23 01:57:03;;;;;;;8.77;6.73;;;;;;;17.16;73.87;94423.75;5034425;28;20543;-86
2022/05/23 02:02:14;;;;;;;6.47;5.97;;;;;;;17.16;74.08;94429.03;5033930;28;20886;-87
2022/05/23 02:04:42;;;;;;;7.50;6.80;;;;;;;17.08;74.27;94421.19;5033126;28;20453;-87
2022/05/23 02:07:09;;;;;;;7.70;6.93;;;;;;;16.97;73.85;94420.59;5033357;28;20458;-86
2022/05/23 02:09:37;;;;;;;8.20;7.40;;;;;;;16.95;73.42;94424.44;5032860;28;20829;-87
2022/05/23 02:12:04;;;;;;;7.47;6.77;;;;;;;16.83;75.59;94415.28;5033433;28;20846;-87
2022/05/23 02:14:31;;;;;;;11.40;7.10;;;;;;;16.80;74.48;94418.31;5035922;28;20488;-87
2022/05/23 02:16:59;;;;;;;6.90;6.30;;;;;;;16.84;74.01;94422.25;5037264;28;20461;-87
2022/05/23 02:19:26;;;;;;;8.23;7.50;;;;;;;16.86;75.12;94428.19;5037678;28;20457;-86
2022/05/23 02:21:54;;;;;;;7.90;7.10;;;;;;;16.89;73.93;94423.34;5037111;28;20482;-86
2022/05/23 02:24:21;;;;;;;6.60;5.80;;;;;;;16.87;73.43;94427.19;5036973;28;20464;-86
2022/05/23 02:26:48;;;;;;;7.40;5.70;;;;;;;16.83;73.22;94421.41;5038230;28;20446;-86
2022/05/23 02:29:18;;;;;;;8.60;6.50;;;;;;;16.84;72.63;94428.38;5037807;28;20447;-86
2022/05/23 02:31:48;;;;;;;6.80;6.20;;;;;;;16.85;73.62;94437.97;5053974;28;20488;-86
2022/05/23 02:34:15;;;;;;;7.00;6.33;;;;;;;16.87;73.33;94435.13;5058125;28;20477;-85
2022/05/23 02:36:43;;;;;;;7.20;6.60;;;;;;;16.84;74.57;94430.19;5058833;28;20464;-85
2022/05/23 02:39:11;;;;;;;8.03;5.80;;;;;;;16.79;74.55;94425.44;5057399;28;20430;-86
2022/05/23 02:41:39;;;;;;;6.60;5.93;;;;;;;16.78;74.19;94425.63;5057756;28;20477;-86
2022/05/23 02:44:06;;;;;;;8.47;7.60;;;;;;;16.73;74.39;94424.28;5058145;28;20902;-87
2022/05/23 02:46:34;;;;;;;6.90;6.37;;;;;;;16.65;73.88;94424.34;5058347;28;20457;-86
2022/05/23 02:49:01;;;;;;;6.83;6.23;;;;;;;16.61;74.86;94425.72;5038389;28;20975;-86
2022/05/23 02:51:28;;;;;;;6.80;6.30;;;;;;;16.57;75.71;94429.72;5057766;28;20513;-88
2022/05/23 02:53:55;;;;;;;7.17;6.47;;;;;;;16.57;74.63;94431.53;5057261;28;20956;-86
2022/05/23 02:56:23;;;;;;;8.03;6.60;;;;;;;16.51;75.25;94432.25;5057832;28;20966;-86
2022/05/23 02:58:50;;;;;;;6.30;5.80;;;;;;;16.52;75.40;94425.97;5057320;28;20448;-86
2022/05/23 03:01:18;;;;;;;6.13;5.53;;;;;;;16.56;74.47;94427.25;5060064;28;20503;-87
2022/05/23 03:03:44;;;;;;;5.70;5.10;;;;;;;16.58;75.35;94422.59;5064337;28;20445;-86
2022/05/23 03:06:11;;;;;;;5.90;5.40;;;;;;;16.52;74.96;94429.44;5060123;28;20817;-86
2022/05/23 03:08:38;;;;;;;6.33;5.73;;;;;;;16.52;75.75;94432.06;5057452;28;20184;-87
2022/05/23 03:11:08;;;;;;;5.67;5.17;;;;;;;16.58;75.32;94439.31;5057352;28;20449;-87
2022/05/23 03:13:37;;;;;;;6.90;6.30;;;;;;;16.41;74.76;94429.81;5057535;28;20473;-87
2022/05/23 03:16:08;;;;;;;7.37;6.77;;;;;;;16.43;75.34;94430.47;5057242;28;20520;-86
2022/05/23 03:18:36;;;;;;;7.63;6.47;;;;;;;16.42;75.90;94420.88;5057374;28;20447;-87
2022/05/23 03:21:05;;;;;;;6.53;5.90;;;;;;;16.12;75.86;94433.16;5057166;28;20481;-86
2022/05/23 03:29:17;;;;;;;7.97;7.20;;;;;;;16.37;77.82;94410.00;4955852;29;20565;-86
2022/05/23 03:35:07;;;;;;;6.77;6.13;;;;;;;17.31;79.42;94404.16;4956817;29;20807;-88
2022/05/23 03:37:34;;;;;;;8.00;7.20;;;;;;;17.80;75.50;94419.53;4957409;29;20454;-84
2022/05/23 03:40:02;;;;;;;12.33;7.00;;;;;;;17.88;71.14;94418.59;4955753;29;20458;-86
2022/05/23 03:42:29;;;;;;;8.83;7.00;;;;;;;17.82;70.22;94425.47;4956356;29;20431;-85
2022/05/23 03:44:58;;;;;;;7.77;7.10;;;;;;;17.61;70.79;94422.72;4955566;29;20430;-86
2022/05/23 03:47:25;;;;;;;8.20;7.40;;;;;;;17.47;71.41;94410.31;4955803;29;20454;-87
2022/05/23 03:49:52;;;;;;;7.00;6.40;;;;;;;17.43;72.52;94414.34;4956013;29;20442;-85
2022/05/23 03:52:20;;;;;;;8.00;7.37;;;;;;;17.41;71.78;94403.09;4956079;29;20526;-85
2022/05/23 03:54:47;;;;;;;8.43;7.33;;;;;;;17.27;72.14;94408.19;4955751;29;20456;-87
2022/05/23 03:57:14;;;;;;;7.40;6.67;;;;;;;17.19;72.72;94421.56;4955405;29;20453;-85
2022/05/23 03:59:40;;;;;;;7.37;6.77;;;;;;;17.13;73.62;94410.84;4959833;28;20478;-86
2022/05/23 04:02:09;;;;;;;10.63;7.00;;;;;;;17.11;73.79;94424.28;4962150;28;20476;-85
2022/05/23 04:04:36;;;;;;;12.07;6.23;;;;;;;17.08;74.07;94427.31;4994599;28;20927;-86
2022/05/23 04:07:05;;;;;;;10.20;7.50;;;;;;;17.08;73.99;94422.00;5045115;28;20529;-86
2022/05/23 04:09:33;;;;;;;7.60;7.00;;;;;;;17.07;74.04;94414.25;5055823;28;20449;-85
2022/05/23 04:12:00;;;;;;;9.30;7.20;;;;;;;17.14;75.18;94418.63;5056911;28;20544;-87
2022/05/23 04:14:28;;;;;;;13.63;7.40;;;;;;;17.32;76.45;94413.78;5055814;28;20434;-86
2022/05/23 04:16:55;;;;;;;7.70;6.87;;;;;;;17.59;73.91;94409.66;5054932;28;20440;-86
2022/05/23 04:19:23;;;;;;;7.17;6.50;;;;;;;17.71;72.77;94395.97;5055862;28;20876;-87
2022/05/23 04:21:51;;;;;;;24.50;7.50;;;;;;;17.97;74.05;94411.38;5054852;28;20485;-87
2022/05/23 04:24:19;;;;;;;11.80;6.80;;;;;;;18.40;72.40;94412.22;5036418;28;20462;-87
2022/05/23 04:26:52;;;;;;;6.23;5.63;;;;;;;18.98;68.47;94416.44;5055497;28;20966;-86
2022/05/23 04:29:19;;;;;;;7.20;6.50;;;;;;;19.48;65.99;94414.53;5055209;28;20449;-86
2022/05/23 04:31:46;;;;;;;9.00;5.93;;;;;;;19.91;64.41;94409.84;5054159;28;20488;-86
2022/05/23 04:36:58;;;;;;;7.50;6.30;;;;;;;20.95;61.82;94394.31;5052206;28;20488;-85
2022/05/23 04:39:25;;;;;;;7.40;6.70;;;;;;;21.13;59.79;94396.38;5034544;28;21093;-85
2022/05/23 04:41:53;;;;;;;9.17;7.10;;;;;;;21.19;58.99;94410.72;5053492;28;20504;-84
2022/05/23 04:44:20;;;;;;;11.93;6.53;;;;;;;21.05;59.03;94407.22;5053313;28;20442;-86
2022/05/23 04:49:45;;;;;;;7.23;6.53;;;;;;;20.79;62.36;94407.22;5051229;28;20512;-85
2022/05/23 04:52:15;;;;;;;8.10;7.10;;;;;;;20.50;61.51;94395.09;5053105;28;20445;-85
2022/05/23 04:54:43;;;;;;;14.73;8.23;;;;;;;20.28;61.75;94397.91;5054774;28;20461;-84
2022/05/23 04:57:11;;;;;;;9.00;7.37;;;;;;;20.17;62.82;94393.16;5054119;28;20428;-85
2022/05/23 04:59:38;;;;;;;8.03;7.33;;;;;;;20.19;62.89;94383.09;5054614;28;20434;-87
2022/05/23 05:02:06;;;;;;;6.13;5.63;;;;;;;20.44;61.92;94385.25;5053734;28;21007;-85
2022/05/23 05:04:33;;;;;;;7.77;5.40;;;;;;;20.70;62.29;94398.59;5036074;28;20544;-85
2022/05/23 05:07:01;;;;;;;6.80;5.17;;;;;;;21.14;62.09;94391.84;5035940;28;20444;-86
2022/05/23 05:09:29;;;;;;;8.07;6.43;;;;;;;21.40;60.15;94399.84;5054848;28;20441;-85
2022/05/23 05:11:56;;;;;;;7.20;6.50;;;;;;;21.35;58.77;94399.63;5054636;28;20449;-85
2022/05/23 05:14:23;;;;;;;8.10;6.30;;;;;;;21.47;58.81;94395.31;5054702;28;20441;-86
2022/05/23 05:16:50;;;;;;;8.90;7.17;;;;;;;21.48;59.07;94385.44;5053308;28;20426;-88
2022/05/23 05:19:17;;;;;;;9.43;7.00;;;;;;;21.36;58.96;94387.91;5034633;28;20453;-88
2022/05/23 05:21:44;;;;;;;7.53;6.83;;;;;;;21.34;59.57;94389.97;5034896;28;20490;-86
2022/05/23 05:24:11;;;;;;;8.10;6.40;;;;;;;21.40;57.92;94391.03;5035215;28;20957;-86
2022/05/23 05:26:40;;;;;;;12.30;6.03;;;;;;;21.63;59.08;94381.47;5035270;28;20442;-87
2022/05/23 05:29:07;;;;;;;8.37;7.50;;;;;;;21.98;56.97;94370.50;5034754;28;20537;-85
2022/05/23 05:31:40;;;;;;;8.43;6.80;;;;;;;22.44;54.91;94377.44;5034078;28;21008;-84
2022/05/23 05:34:12;;;;;;;12.43;7.50;;;;;;;22.88;55.41;94373.06;5034326;28;20473;-85
2022/05/23 05:36:44;;;;;;;17.37;8.00;;;;;;;23.22;54.90;94371.72;5034232;28;20447;-85
2022/05/23 05:39:18;;;;;;;8.27;7.47;;;;;;;23.53;53.65;94371.63;5034025;28;20824;-84
2022/05/23 05:41:53;;;;;;;9.50;7.50;;;;;;;23.67;51.92;94372.31;5021225;28;20493;-85
2022/05/23 05:44:23;;;;;;;8.00;6.83;;;;;;;24.04;51.83;94379.31;5034317;28;20458;-85
2022/05/23 05:46:55;;;;;;;10.93;8.53;;;;;;;24.46;50.41;94379.38;5033821;28;20497;-85
2022/05/23 05:49:27;;;;;;;9.63;5.77;;;;;;;24.58;47.49;94374.91;5044768;28;20445;-84
2022/05/23 05:51:59;;;;;;;8.60;6.23;;;;;;;24.51;47.83;94381.38;5033768;28;20457;-84
2022/05/23 05:54:29;;;;;;;8.33;6.30;;;;;;;24.09;49.14;94387.50;5051086;28;20448;-84
2022/05/23 05:57:01;;;;;;;8.00;6.90;;;;;;;23.74;50.07;94383.78;5052540;28;20452;-82
2022/05/23 05:59:28;;;;;;;10.70;8.13;;;;;;;23.32;50.53;94388.09;5052152;28;20450;-84
2022/05/23 06:01:55;;;;;;;15.00;8.77;;;;;;;22.65;54.38;94397.69;5033858;28;20484;-84
2022/05/23 06:04:22;;;;;;;20.60;11.33;;;;;;;21.78;58.73;94397.28;5052865;28;20446;-84
2022/05/23 06:12:23;;;;;;;24.37;10.83;;;;;;;20.58;63.49;94389.59;5052578;28;20445;-84
2022/05/23 06:14:49;;;;;;;18.83;10.17;;;;;;;20.33;65.80;94387.47;5055633;28;20446;-84
2022/05/23 06:17:16;;;;;;;12.80;9.70;;;;;;;20.84;64.81;94381.59;5052291;28;20466;-83
2022/05/23 06:19:46;;;;;;;11.17;9.90;;;;;;;21.32;63.32;94379.50;5052018;28;20720;-84
2022/05/23 06:22:14;;;;;;;16.37;10.33;;;;;;;21.42;61.74;94379.09;5052002;28;20493;-84
2022/05/23 06:24:41;;;;;;;12.50;9.47;;;;;;;21.23;63.66;94369.25;5051779;28;20448;-83
2022/05/23 06:27:09;;;;;;;12.43;9.03;;;;;;;21.01;63.85;94372.13;5051674;28;20860;-83
2022/05/23 06:29:39;;;;;;;15.40;9.33;;;;;;;20.82;63.81;94359.66;5032883;28;20448;-84
2022/05/23 06:32:06;;;;;;;10.77;8.70;;;;;;;20.68;65.60;94350.81;5050598;28;20606;-82
2022/05/23 06:34:33;;;;;;;12.40;8.47;;;;;;;20.44;66.48;94351.41;5032505;28;20959;-84
2022/05/23 06:37:00;;;;;;;10.17;8.87;;;;;;;20.96;66.36;94352.44;5032888;28;20426;-84
2022/05/23 06:39:27;;;;;;;11.50;8.03;;;;;;;21.51;64.05;94351.13;5051791;28;20438;-84
2022/05/23 06:41:54;;;;;;;13.77;8.60;;;;;;;22.00;62.13;94344.38;5052073;28;20480;-84
2022/05/23 06:44:21;;;;;;;11.40;7.10;;;;;;;22.60;58.01;94336.81;5049888;28;20456;-83
2022/05/23 06:46:50;;;;;;;5.13;4.70;;;;;;;23.19;53.83;94348.91;5050527;28;20481;-84
2022/05/23 06:49:20;;;;;;;14.07;7.17;;;;;;;23.75;54.70;94343.38;5042169;28;20480;-83
2022/05/23 06:51:49;;;;;;;12.73;7.00;;;;;;;24.35;51.90;94338.09;5052377;28;20532;-83
2022/05/23 06:54:17;;;;;;;3.53;3.23;;;;;;;24.84;44.02;94332.56;5052446;28;20488;-83
2022/05/23 06:56:44;;;;;;;5.33;3.13;;;;;;;24.93;40.70;94325.84;5051970;28;20864;-83
2022/05/23 06:59:11;;;;;;;6.60;4.37;;;;;;;25.14;42.02;94333.31;5051833;28;20526;-82
2022/05/23 07:01:38;;;;;;;5.23;3.97;;;;;;;25.25;39.81;94337.09;5054261;28;20470;-83
2022/05/23 07:04:07;;;;;;;7.93;3.57;;;;;;;25.30;40.43;94321.06;5056654;28;20479;-85
2022/05/23 07:12:23;;;;;;;5.90;2.97;;;;;;;25.17;38.90;94324.00;5056533;28;20512;-85
2022/05/23 07:14:50;;;;;;;6.73;3.57;;;;;;;25.23;40.23;94337.31;5056791;28;20466;-85
2022/05/23 07:17:17;;;;;;;3.77;3.10;;;;;;;25.28;40.01;94334.75;5056969;28;20454;-86
2022/05/23 07:19:45;;;;;;;4.30;3.60;;;;;;;25.31;39.66;94326.22;5038258;28;20442;-85
2022/05/23 07:22:12;;;;;;;8.10;4.50;;;;;;;25.18;39.90;94336.38;5056001;28;20479;-85
2022/05/23 07:24:40;;;;;;;4.37;3.10;;;;;;;24.96;39.06;94336.91;5056902;28;20433;-85
2022/05/23 07:27:07;;;;;;;4.83;3.40;;;;;;;24.99;39.04;94336.50;5055498;28;20469;-84
2022/05/23 07:29:34;;;;;;;6.00;3.30;;;;;;;25.17;39.17;94340.94;5056886;28;20528;-84
2022/05/23 07:32:01;;;;;;;5.63;3.80;;;;;;;25.25;38.95;94332.53;5056079;28;20905;-86
2022/05/23 07:34:28;;;;;;;3.90;3.60;;;;;;;25.00;38.87;94334.63;5056823;28;20492;-87
2022/05/23 07:36:59;;;;;;;9.90;3.93;;;;;;;25.08;39.81;94347.69;5038055;28;20469;-86
2022/05/23 07:39:26;;;;;;;7.03;3.27;;;;;;;25.13;39.62;94342.44;5056100;28;20912;-85
2022/05/23 07:41:53;;;;;;;5.33;3.53;;;;;;;24.94;40.35;94332.84;5056835;28;20473;-87
2022/05/23 07:47:42;;;;;;;3.73;3.17;;;;;;;24.35;41.69;94326.53;5054976;28;20550;-85
2022/05/23 07:50:11;;;;;;;6.23;4.30;;;;;;;24.54;41.31;94332.63;5055593;28;20438;-84
2022/05/23 08:00:29;;;;;;;8.70;3.40;;;;;;;24.78;41.63;94330.81;5056238;28;20442;-84
2022/05/23 08:00:55;;;;;;;3.73;3.30;;;;;;;25.41;40.30;94316.72;5055362;28;20437;-83
2022/05/23 08:03:22;;;;;;;3.30;3.00;;;;;;;25.40;39.21;94333.91;5055237;28;20992;-84
2022/05/23 08:05:49;;;;;;;3.23;3.00;;;;;;;25.44;38.85;94335.06;5054424;28;20457;-84
2022/05/23 08:08:17;;;;;;;8.57;3.80;;;;;;;25.67;40.10;94334.25;5054866;28;20446;-83
2022/05/23 08:10:44;;;;;;;5.53;4.23;;;;;;;25.75;39.30;94332.03;5054935;28;20441;-85
2022/05/23 08:13:11;;;;;;;3.63;3.33;;;;;;;25.77;40.41;94338.00;5054766;28;20441;-83
2022/05/23 08:15:40;;;;;;;3.20;2.90;;;;;;;25.76;38.62;94322.91;5055761;28;20449;-83
2022/05/23 08:18:09;;;;;;;4.87;3.97;;;;;;;25.79;39.86;94333.19;5055028;28;20780;-85
2022/05/23 08:20:37;;;;;;;5.07;3.83;;;;;;;25.99;41.23;94338.13;5055245;28;20430;-83
2022/05/23 08:23:05;;;;;;;5.00;4.30;;;;;;;25.94;40.29;94335.34;5054987;28;20509;-84
2022/05/23 08:25:33;;;;;;;12.03;3.50;;;;;;;25.71;38.63;94325.47;5020074;28;20438;-84
2022/05/23 08:28:00;;;;;;;4.03;3.63;;;;;;;25.46;37.63;94336.50;5055095;28;20452;-83
2022/05/23 08:30:27;;;;;;;5.10;3.30;;;;;;;25.32;38.18;94333.22;5054248;28;21287;-83
2022/05/23 08:32:54;;;;;;;3.53;2.97;;;;;;;25.27;37.71;94335.78;5054773;28;20448;-84
2022/05/23 08:35:24;;;;;;;8.33;3.50;;;;;;;25.24;38.72;94336.25;5054991;28;20434;-83
2022/05/23 08:37:54;;;;;;;5.60;3.00;;;;;;;24.99;39.37;94323.06;5054524;28;20453;-83
2022/05/23 08:40:22;;;;;;;4.13;3.70;;;;;;;25.04;40.89;94321.53;5055281;28;20473;-85
2022/05/23 08:42:56;;;;;;;15.33;4.03;;;;;;;25.06;41.67;94331.00;5036229;28;20477;-84
2022/05/23 08:45:30;;;;;;;7.70;3.30;;;;;;;24.92;42.53;94327.72;5054775;28;20922;-84
2022/05/23 08:48:08;;;;;;;3.07;2.83;;;;;;;24.72;38.56;94324.53;5054803;28;20437;-84
2022/05/23 08:50:48;;;;;;;3.27;2.97;;;;;;;24.53;38.69;94318.41;5054820;28;20907;-85
2022/05/23 08:53:21;;;;;;;4.80;2.83;;;;;;;24.76;39.34;94317.63;5019645;28;20446;-85
2022/05/23 08:55:52;;;;;;;5.93;3.77;;;;;;;24.88;38.21;94323.03;5036416;28;20434;-86
2022/05/23 08:58:25;;;;;;;5.60;3.20;;;;;;;25.08;38.53;94315.47;5054124;28;20441;-84
2022/05/23 09:00:58;;;;;;;6.97;3.00;;;;;;;25.17;39.81;94314.09;5053716;28;20763;-85
2022/05/23 09:03:30;;;;;;;5.30;3.87;;;;;;;25.42;41.21;94315.69;5035423;28;20531;-83
2022/05/23 09:06:02;;;;;;;3.60;3.30;;;;;;;25.77;43.62;94321.03;5054718;28;20484;-83
2022/05/23 09:08:34;;;;;;;5.50;3.90;;;;;;;25.93;40.45;94313.03;5053871;28;20456;-84
2022/05/23 09:11:08;;;;;;;3.70;3.40;;;;;;;25.86;37.35;94293.53;5055181;28;20441;-87
2022/05/23 09:13:40;;;;;;;3.17;2.60;;;;;;;25.78;36.43;94307.38;5053751;28;20458;-87
2022/05/23 09:16:12;;;;;;;6.97;2.93;;;;;;;25.94;37.25;94292.34;5054062;28;20926;-84
2022/05/23 09:18:44;;;;;;;3.60;2.93;;;;;;;25.84;36.41;94306.41;5054432;28;20449;-85
2022/05/23 09:21:11;;;;;;;5.90;3.63;;;;;;;25.45;36.39;94305.31;5054560;28;20449;-84
2022/05/23 09:23:45;;;;;;;5.13;2.93;;;;;;;25.28;36.99;94305.19;5053971;28;20504;-85
2022/05/23 09:26:19;;;;;;;3.47;3.17;;;;;;;25.18;37.25;94275.44;5053727;28;20528;-85
2022/05/23 09:28:50;;;;;;;3.00;2.60;;;;;;;25.03;37.56;94296.56;5054266;28;20472;-85
2022/05/23 09:31:27;;;;;;;3.40;3.00;;;;;;;24.98;37.79;94293.75;5054554;28;20505;-85
2022/05/23 09:33:57;;;;;;;3.57;2.90;;;;;;;24.96;38.21;94293.16;5054673;28;20544;-84
2022/05/23 09:36:28;;;;;;;5.43;3.40;;;;;;;25.15;37.27;94285.81;5053916;28;20445;-84
2022/05/23 09:38:58;;;;;;;3.40;2.73;;;;;;;25.43;38.08;94287.75;5053582;28;20844;-85
2022/05/23 09:49:58;;;;;;;3.20;3.00;;;;;;;25.57;37.08;94298.03;5053453;28;21022;-84
2022/05/23 09:52:29;;;;;;;6.23;3.60;;;;;;;25.80;37.33;94296.38;5053628;28;20442;-83
2022/05/23 09:54:58;;;;;;;4.47;3.30;;;;;;;26.03;37.57;94285.53;5054727;28;20452;-85
2022/05/23 09:57:27;;;;;;;3.20;2.90;;;;;;;26.16;36.25;94289.81;5053568;28;20430;-84
2022/05/23 10:00:01;;;;;;;3.13;2.87;;;;;;;26.25;37.62;94291.84;5053772;28;20978;-84
2022/05/23 10:02:37;;;;;;;9.80;3.30;;;;;;;26.21;37.06;94281.81;5054096;28;21054;-84
2022/05/23 10:05:07;;;;;;;5.33;3.03;;;;;;;25.77;36.41;94281.53;5054319;28;21174;-90
2022/05/23 10:07:36;;;;;;;4.87;3.80;;;;;;;25.70;36.89;94275.47;5019759;28;20441;-86
2022/05/23 10:10:06;;;;;;;7.13;3.00;;;;;;;25.56;38.11;94279.47;5053696;28;20806;-84
2022/05/23 10:12:34;;;;;;;7.13;2.87;;;;;;;25.49;37.55;94273.41;5053295;28;20430;-83
2022/05/23 10:15:14;;;;;;;9.67;3.30;;;;;;;25.41;36.69;94276.44;5054079;28;20464;-85
2022/05/23 10:17:43;;;;;;;5.43;2.93;;;;;;;25.41;37.21;94271.88;5053334;28;20438;-83
2022/05/23 10:20:28;;;;;;;3.63;3.30;;;;;;;25.43;37.82;94275.16;5019237;28;20527;-83
2022/05/23 10:23:01;;;;;;;3.50;3.20;;;;;;;25.44;38.18;94267.91;5053183;28;20504;-83
2022/05/23 10:25:33;;;;;;;4.60;3.50;;;;;;;25.47;39.26;94262.09;5053434;28;20438;-83
2022/05/23 10:28:06;;;;;;;9.47;2.67;;;;;;;25.52;38.27;94270.25;5052989;28;20508;-83
2022/05/23 10:30:36;;;;;;;9.73;3.50;;;;;;;25.61;37.82;94258.06;5053595;28;20474;-86
2022/05/23 10:33:08;;;;;;;5.47;4.23;;;;;;;25.57;37.46;94259.59;5055252;28;20955;-86
2022/05/23 10:35:39;;;;;;;4.10;3.67;;;;;;;25.53;37.74;94250.38;5058348;28;20536;-88
2022/05/23 10:43:51;;;;;;;4.17;3.87;;;;;;;25.62;36.68;94247.06;5060878;28;20461;-87
2022/05/23 10:46:20;;;;;;;3.50;3.20;;;;;;;25.71;36.39;94247.53;5058958;28;20436;-89
2022/05/23 10:48:59;;;;;;;3.40;2.67;;;;;;;25.69;36.18;94252.34;5058823;28;20536;-87
2022/05/23 10:51:35;;;;;;;4.47;3.07;;;;;;;25.67;37.11;94254.44;5058491;28;20444;-89
2022/05/23 10:54:27;;;;;;;3.00;2.80;;;;;;;25.68;36.13;94239.13;5056918;28;20993;-88
2022/05/23 10:57:10;;;;;;;7.53;3.10;;;;;;;25.66;37.57;94236.66;5057147;28;20484;-86
2022/05/23 10:59:43;;;;;;;2.93;2.73;;;;;;;25.72;36.16;94230.34;5056995;28;20534;-86
2022/05/23 11:02:27;;;;;;;2.80;2.60;;;;;;;25.71;36.49;94220.66;5057203;28;20976;-86
2022/05/23 11:05:09;;;;;;;3.87;3.57;;;;;;;25.69;36.88;94233.53;5039959;28;20952;-85
2022/05/23 11:07:44;;;;;;;2.73;2.53;;;;;;;25.63;36.04;94231.75;5056853;28;20446;-83
2022/05/23 11:10:19;;;;;;;3.70;2.50;;;;;;;25.64;35.41;94226.16;5056718;28;20446;-82
2022/05/23 11:12:58;;;;;;;2.60;2.40;;;;;;;25.69;34.38;94219.25;5056543;28;20429;-82
2022/05/23 11:15:39;;;;;;;4.53;2.90;;;;;;;25.77;36.00;94226.97;5056282;28;20868;-83
2022/05/23 11:18:22;;;;;;;4.33;2.67;;;;;;;25.73;35.53;94220.41;5056598;28;20446;-83
2022/05/23 11:20:55;;;;;;;2.70;2.50;;;;;;;25.78;35.55;94229.41;5056341;28;20453;-84
2022/05/23 11:23:29;;;;;;;2.57;2.30;;;;;;;25.73;35.06;94225.78;5057097;28;20481;-83
2022/05/23 11:25:59;;;;;;;3.10;2.60;;;;;;;25.82;35.63;94222.50;5037896;28;20429;-83
2022/05/23 11:34:14;;;;;;;3.10;2.17;;;;;;;25.88;34.81;94215.34;5055784;28;20441;-84
2022/05/23 11:37:01;;;;;;;10.10;2.53;;;;;;;25.91;35.89;94220.22;5037799;28;20441;-84
2022/05/23 11:39:46;;;;;;;2.93;2.60;;;;;;;26.04;34.59;94217.25;5055909;28;20438;-84
2022/05/23 11:42:15;;;;;;;6.70;2.40;;;;;;;26.00;34.62;94217.97;5055498;28;20943;-84
2022/05/23 11:54:53;;;;;;;3.17;2.70;;;;;;;25.77;35.37;94226.97;4955404;29;20397;-85
2022/05/23 11:57:36;;;;;;;4.40;2.77;;;;;;;25.84;34.97;94238.38;4955562;29;20478;-85
2022/05/23 12:00:29;;;;;;;8.97;2.67;;;;;;;25.84;35.54;94228.44;4955473;29;20442;-85
2022/05/23 12:03:14;;;;;;;3.63;3.00;;;;;;;25.90;34.34;94216.72;4955816;28;20482;-85
2022/05/23 12:05:41;;;;;;;6.67;3.23;;;;;;;25.91;35.18;94223.72;4955192;29;20525;-85
2022/05/23 12:08:28;;;;;;;2.63;2.43;;;;;;;25.96;35.66;94227.56;4955375;29;20438;-83
2022/05/23 12:11:00;;;;;;;4.23;2.90;;;;;;;25.94;35.74;94215.19;4906805;29;21044;-85
2022/05/23 12:13:49;;;;;;;7.20;2.57;;;;;;;26.00;35.90;94217.97;4955630;29;20450;-85
2022/05/23 12:16:36;;;;;;;6.07;2.33;;;;;;;26.06;34.34;94217.84;4955317;29;20482;-89
2022/05/23 12:19:13;;;;;;;9.00;2.67;;;;;;;26.14;34.12;94222.81;4955496;29;20462;-84
2022/05/23 12:21:43;;;;;;;3.60;2.70;;;;;;;26.10;35.65;94210.09;4954831;29;20526;-84
2022/05/23 12:24:26;;;;;;;3.17;2.47;;;;;;;26.18;35.17;94207.00;4991994;28;20490;-84
2022/05/23 12:26:57;;;;;;;17.80;3.27;;;;;;;26.32;35.85;94218.28;5054872;28;20441;-85
2022/05/23 12:29:32;;;;;;;7.17;2.93;;;;;;;26.31;33.99;94206.69;5054893;28;20495;-84
2022/05/23 12:32:18;;;;;;;2.97;2.67;;;;;;;26.30;33.88;94205.03;5055254;28;20465;-83
2022/05/23 12:34:48;;;;;;;4.40;2.43;;;;;;;26.16;33.69;94195.66;5054931;28;20430;-85
2022/05/23 12:37:26;;;;;;;3.30;3.00;;;;;;;26.12;35.87;94211.47;5055783;28;20429;-83
2022/05/23 12:40:10;;;;;;;3.70;2.73;;;;;;;26.19;34.99;94204.06;5055231;28;20790;-84
2022/05/23 12:43:07;;;;;;;3.20;2.70;;;;;;;26.18;35.08;94202.44;5054570;28;20812;-84
2022/05/23 12:46:04;;;;;;;4.03;2.93;;;;;;;26.28;35.75;94204.47;5013111;28;20869;-85
2022/05/23 12:49:07;;;;;;;3.17;2.97;;;;;;;26.35;35.66;94202.50;4973618;28;20504;-83
2022/05/23 12:55:09;;;;;;;2.60;2.30;;;;;;;26.31;34.38;94203.16;4897043;29;20451;-81
2022/05/23 12:58:03;;;;;;;5.43;3.63;;;;;;;26.23;33.41;94199.00;4896868;29;20457;-81
2022/05/23 13:00:36;;;;;;;2.53;2.33;;;;;;;26.17;34.38;94194.59;4865720;29;20449;-81
2022/05/23 13:03:11;;;;;;;3.70;2.67;;;;;;;26.24;33.98;94203.31;4896739;29;20485;-83
2022/05/23 13:05:43;;;;;;;4.53;3.10;;;;;;;26.23;34.18;94202.50;4896710;29;20448;-85
2022/05/23 13:08:18;;;;;;;2.90;2.60;;;;;;;26.13;34.49;94207.72;4896014;29;20454;-83
2022/05/23 13:10:51;;;;;;;3.00;2.70;;;;;;;26.09;34.51;94205.78;4896792;29;20866;-82
2022/05/23 13:13:26;;;;;;;4.70;2.90;;;;;;;26.20;35.10;94204.88;4896558;29;20501;-82
2022/05/23 13:15:54;;;;;;;3.43;2.80;;;;;;;26.32;33.87;94204.81;4897677;29;20449;-83
2022/05/23 13:23:52;;;;;;;3.10;2.80;;;;;;;25.94;33.11;94207.13;4934194;29;20486;-83